Time;durP1;ratioP1;P1;durP2;ratioP2;P2;SDS_P1;SDS_P2;PMS_P1;PMS_P2;Temp;Humidity;BMP_temperature;BMP_pressure;BME280_temperature;BME280_humidity;BME280_pressure;Samples;Min_cycle;Max_cycle;Signal;HPM_P1;HPM_P2
2021/03/03 06:00:54;;;;;;;;;;;;;;;;;;5144522;27;20323;-47
2021/03/03 06:03:21;;;;;;;0.17;0.17;;;;;;;;;;5134310;27;19952;-46
2021/03/03 06:05:50;;;;;;;1.00;1.00;;;;;;;;;;5130183;27;20046;-47
2021/03/03 06:08:17;;;;;;;5.60;0.75;;;;;;;;;;5130151;27;20035;-47
2021/03/03 06:10:43;;;;;;;0.25;0.25;;;;;;;;;;5129760;27;20118;-48
2021/03/03 06:13:09;;;;;;;0.85;0.63;;;;;;;;;;5126859;27;20020;-55
2021/03/03 06:15:35;;;;;;;0.22;0.22;;;;;;;;;;5130257;27;20186;-49
2021/03/03 06:18:02;;;;;;;2.33;1.17;;;;;;;;;;5130826;27;20042;-47
2021/03/03 06:20:28;;;;;;;0.20;0.20;;;;;;;;;;5128838;27;20455;-51
2021/03/03 06:22:54;;;;;;;0.00;0.00;;;;;;;;;;5128978;27;20092;-49
2021/03/03 06:25:23;;;;;;;5.63;1.75;;;;;;;;;;5127450;27;20483;-49
2021/03/03 06:27:49;;;;;;;0.00;0.00;;;;;;;;;;5126200;27;20416;-53
2021/03/03 06:30:17;;;;;;;3.00;1.17;;;;;;;;;;5131799;27;20584;-50
2021/03/03 06:32:57;;;;;;;0.70;0.70;;;;;;;;;;5127272;27;20030;-53
2021/03/03 06:35:37;;;;;;;0.28;0.28;;;;;;;;;;5126437;27;20029;-48
2021/03/03 06:38:03;;;;;;;0.60;0.60;;;;;;;;;;5123018;27;20031;-51
2021/03/03 06:40:29;;;;;;;0.45;0.45;;;;;;;;;;5126727;27;20473;-47
2021/03/03 06:42:56;;;;;;;0.28;0.28;;;;;;;;;;5125606;28;20020;-47
2021/03/03 06:45:29;;;;;;;2.65;1.65;;;;;;;;;;5127000;28;20431;-47
2021/03/03 06:47:56;;;;;;;4.70;2.72;;;;;;;;;;5128638;27;20035;-45
2021/03/03 06:50:31;;;;;;;0.20;0.20;;;;;;;;;;5127723;27;20043;-47
2021/03/03 06:52:57;;;;;;;0.45;0.45;;;;;;;;;;5126802;27;20118;-46
2021/03/03 06:55:24;;;;;;;0.45;0.45;;;;;;;;;;5136109;27;20034;-45
2021/03/03 06:57:50;;;;;;;1.63;1.55;;;;;;;;;;5127318;27;20020;-47
2021/03/03 07:00:36;;;;;;;0.13;0.13;;;;;;;;;;5124376;27;20074;-46
2021/03/03 07:03:21;;;;;;;2.28;2.10;;;;;;;;;;5112749;27;20033;-46
2021/03/03 07:05:47;;;;;;;0.20;0.10;;;;;;;;;;5114017;27;20027;-47
2021/03/03 07:08:13;;;;;;;1.65;0.85;;;;;;;;;;5119347;27;20353;-47
2021/03/03 07:10:39;;;;;;;0.95;0.68;;;;;;;;;;5119800;27;20512;-46
2021/03/03 07:13:05;;;;;;;2.15;2.00;;;;;;;;;;5118353;27;20034;-50
2021/03/03 07:15:32;;;;;;;0.25;0.20;;;;;;;;;;5120829;27;20027;-48
2021/03/03 07:17:58;;;;;;;0.40;0.40;;;;;;;;;;5120673;27;20153;-45
2021/03/03 07:20:24;;;;;;;0.30;0.30;;;;;;;;;;5118865;27;20028;-45
2021/03/03 07:22:51;;;;;;;0.10;0.10;;;;;;;;;;5118332;27;20020;-47
2021/03/03 07:25:18;;;;;;;0.10;0.10;;;;;;;;;;5119568;27;20047;-45
2021/03/03 07:27:47;;;;;;;0.00;0.00;;;;;;;;;;5117576;27;20031;-47
2021/03/03 07:30:15;;;;;;;0.05;0.05;;;;;;;;;;5121825;27;20061;-46
2021/03/03 07:32:42;;;;;;;0.52;0.52;;;;;;;;;;5117744;27;20094;-46
2021/03/03 07:35:10;;;;;;;0.45;0.45;;;;;;;;;;5118582;27;20024;-48
2021/03/03 07:37:36;;;;;;;0.00;0.00;;;;;;;;;;5120919;27;20027;-50
2021/03/03 07:40:07;;;;;;;4.53;1.10;;;;;;;;;;5112800;27;20562;-50
2021/03/03 07:42:33;;;;;;;0.00;0.00;;;;;;;;;;5112887;28;20053;-49
2021/03/03 07:45:05;;;;;;;0.00;0.00;;;;;;;;;;5111967;28;20027;-48
2021/03/03 07:47:34;;;;;;;0.52;0.43;;;;;;;;;;5109326;28;20024;-50
2021/03/03 07:50:10;;;;;;;0.63;0.63;;;;;;;;;;5109208;28;20412;-47
2021/03/03 07:53:03;;;;;;;0.20;0.20;;;;;;;;;;5109532;28;20032;-48
2021/03/03 07:55:29;;;;;;;0.00;0.00;;;;;;;;;;5105697;28;20040;-51
2021/03/03 07:57:57;;;;;;;0.00;0.00;;;;;;;;;;5092627;28;20383;-49
2021/03/03 08:00:34;;;;;;;2.10;1.45;;;;;;;;;;5102986;28;20044;-50
2021/03/03 08:03:00;;;;;;;1.55;1.42;;;;;;;;;;5102018;28;20438;-50
2021/03/03 08:05:30;;;;;;;0.28;0.28;;;;;;;;;;5104292;28;20201;-48
2021/03/03 08:08:12;;;;;;;0.05;0.05;;;;;;;;;;5101350;28;20131;-47
2021/03/03 08:10:39;;;;;;;0.00;0.00;;;;;;;;;;5114590;27;20031;-48
2021/03/03 08:13:06;;;;;;;0.73;0.73;;;;;;;;;;5113546;27;20024;-47
2021/03/03 08:15:45;;;;;;;0.17;0.10;;;;;;;;;;5117712;27;20520;-49
2021/03/03 08:18:15;;;;;;;0.13;0.13;;;;;;;;;;5116135;27;20024;-48
2021/03/03 08:20:46;;;;;;;0.00;0.00;;;;;;;;;;5115396;27;20510;-47
2021/03/03 08:23:32;;;;;;;0.00;0.00;;;;;;;;;;5117238;27;20063;-46
2021/03/03 08:26:06;;;;;;;0.47;0.47;;;;;;;;;;5105099;27;20016;-45
2021/03/03 08:28:36;;;;;;;0.00;0.00;;;;;;;;;;5078767;28;20042;-48
2021/03/03 08:31:14;;;;;;;0.35;0.35;;;;;;;;;;5109765;27;20035;-49
2021/03/03 08:33:55;;;;;;;0.00;0.00;;;;;;;;;;5108105;27;20051;-51
2021/03/03 08:36:21;;;;;;;0.00;0.00;;;;;;;;;;5113514;27;20508;-49
2021/03/03 08:38:48;;;;;;;1.30;0.88;;;;;;;;;;5112549;27;20024;-48
2021/03/03 08:41:14;;;;;;;3.20;1.52;;;;;;;;;;5109203;27;20024;-48
2021/03/03 08:43:42;;;;;;;0.30;0.30;;;;;;;;;;5113682;27;20027;-46
2021/03/03 08:46:20;;;;;;;2.60;0.98;;;;;;;;;;5111769;27;20062;-49
2021/03/03 08:48:54;;;;;;;1.40;1.30;;;;;;;;;;5113914;27;20054;-51
2021/03/03 08:51:28;;;;;;;0.00;0.00;;;;;;;;;;5120078;27;20023;-48
2021/03/03 08:53:55;;;;;;;0.90;0.52;;;;;;;;;;5110763;28;20374;-53
2021/03/03 08:56:38;;;;;;;0.20;0.20;;;;;;;;;;5092284;28;20038;-45
2021/03/03 08:59:08;;;;;;;0.65;0.65;;;;;;;;;;5104965;28;20031;-50
2021/03/03 09:01:53;;;;;;;0.17;0.17;;;;;;;;;;5106879;28;20475;-55
2021/03/03 09:04:23;;;;;;;0.85;0.77;;;;;;;;;;5109541;28;20020;-47
2021/03/03 09:06:50;;;;;;;4.00;1.00;;;;;;;;;;5106841;28;20158;-48
2021/03/03 09:09:17;;;;;;;0.45;0.28;;;;;;;;;;5108031;28;20046;-54
2021/03/03 09:11:44;;;;;;;0.00;0.00;;;;;;;;;;5104966;28;20538;-47
2021/03/03 09:14:10;;;;;;;0.00;0.00;;;;;;;;;;5108326;28;20020;-48
2021/03/03 09:16:51;;;;;;;1.20;0.47;;;;;;;;;;5109415;28;20098;-48
2021/03/03 09:19:17;;;;;;;2.88;2.10;;;;;;;;;;5107386;28;20028;-49
2021/03/03 09:21:44;;;;;;;7.40;5.25;;;;;;;;;;5112106;27;20023;-50
2021/03/03 09:24:13;;;;;;;2.80;2.08;;;;;;;;;;5116074;27;20032;-50
2021/03/03 09:26:40;;;;;;;1.15;0.90;;;;;;;;;;5110059;28;20028;-47
2021/03/03 09:29:07;;;;;;;1.63;1.27;;;;;;;;;;5103401;27;20048;-47
2021/03/03 09:31:34;;;;;;;2.67;2.47;;;;;;;;;;5110495;28;20028;-46
2021/03/03 09:34:01;;;;;;;2.42;1.58;;;;;;;;;;5105842;28;20488;-45
2021/03/03 09:36:27;;;;;;;12.00;3.08;;;;;;;;;;5109236;28;20095;-45
2021/03/03 09:38:54;;;;;;;5.15;3.03;;;;;;;;;;5109222;28;20114;-46
2021/03/03 09:41:21;;;;;;;1.08;0.98;;;;;;;;;;5107817;28;20020;-47
2021/03/03 09:44:19;;;;;;;11.30;1.48;;;;;;;;;;5105952;28;20027;-50
2021/03/03 09:46:59;;;;;;;16.48;8.80;;;;;;;;;;5006136;28;20046;-45
2021/03/03 09:49:27;;;;;;;2.55;1.42;;;;;;;;;;5004941;28;20050;-47
2021/03/03 09:51:53;;;;;;;2.08;1.05;;;;;;;;;;5009869;28;20570;-47
2021/03/03 09:54:38;;;;;;;0.80;0.50;;;;;;;;;;5011406;28;20038;-48
2021/03/03 09:57:21;;;;;;;3.42;1.05;;;;;;;;;;5013396;28;20038;-49
2021/03/03 09:59:48;;;;;;;6.60;1.25;;;;;;;;;;5005780;28;20507;-45
2021/03/03 10:02:25;;;;;;;5.00;2.70;;;;;;;;;;5006555;28;20045;-46
2021/03/03 10:04:52;;;;;;;1.58;1.25;;;;;;;;;;5004323;28;20109;-47
2021/03/03 10:07:21;;;;;;;0.55;0.55;;;;;;;;;;5003615;28;20033;-48
2021/03/03 10:09:48;;;;;;;14.50;3.83;;;;;;;;;;4995634;28;20065;-46
2021/03/03 10:12:15;;;;;;;9.15;1.65;;;;;;;;;;4998351;28;20125;-47
2021/03/03 10:15:00;;;;;;;6.70;4.22;;;;;;;;;;5003519;28;20120;-46
2021/03/03 10:17:34;;;;;;;4.70;2.03;;;;;;;;;;4999572;28;20045;-47
2021/03/03 10:20:00;;;;;;;2.00;1.55;;;;;;;;;;5001854;28;20965;-54
2021/03/03 10:22:27;;;;;;;3.88;1.73;;;;;;;;;;5055153;28;20043;-58
2021/03/03 10:25:00;;;;;;;1.95;0.47;;;;;;;;;;5101532;28;20043;-56
2021/03/03 10:27:29;;;;;;;22.38;1.13;;;;;;;;;;5098354;28;20040;-49
2021/03/03 10:29:55;;;;;;;1.50;1.30;;;;;;;;;;5104865;28;20035;-51
2021/03/03 10:32:21;;;;;;;6.47;3.08;;;;;;;;;;5100696;28;20024;-49
2021/03/03 10:34:47;;;;;;;0.00;0.00;;;;;;;;;;5100514;28;20481;-47
2021/03/03 10:37:24;;;;;;;1.15;1.15;;;;;;;;;;5105954;28;20012;-48
2021/03/03 10:39:51;;;;;;;0.50;0.50;;;;;;;;;;5111523;28;20055;-47
2021/03/03 10:42:21;;;;;;;105.65;6.53;;;;;;;;;;5113129;28;20019;-48
2021/03/03 10:44:52;;;;;;;0.57;0.55;;;;;;;;;;5108624;27;20077;-49
2021/03/03 10:47:38;;;;;;;13.00;2.28;;;;;;;;;;5105052;28;20020;-49
2021/03/03 10:50:04;;;;;;;1.90;0.82;;;;;;;;;;5103710;28;20097;-51
2021/03/03 10:52:30;;;;;;;0.20;0.15;;;;;;;;;;5099608;28;20016;-51
2021/03/03 10:54:56;;;;;;;3.75;1.00;;;;;;;;;;5103730;28;20031;-49
2021/03/03 10:57:23;;;;;;;1.17;0.93;;;;;;;;;;5111843;28;20073;-45
2021/03/03 11:00:01;;;;;;;11.48;1.15;;;;;;;;;;5109545;28;20049;-50
2021/03/03 11:02:27;;;;;;;0.28;0.20;;;;;;;;;;5103670;28;20028;-47
2021/03/03 11:04:53;;;;;;;0.10;0.10;;;;;;;;;;5103980;28;20012;-48
2021/03/03 11:07:20;;;;;;;0.63;0.17;;;;;;;;;;5105699;28;20031;-46
2021/03/03 11:09:53;;;;;;;2.92;0.73;;;;;;;;;;5100049;28;20036;-50
2021/03/03 11:12:23;;;;;;;1.20;0.73;;;;;;;;;;5082811;28;20034;-50
2021/03/03 11:14:49;;;;;;;2.78;2.25;;;;;;;;;;5107881;28;20541;-47
2021/03/03 11:17:15;;;;;;;0.75;0.43;;;;;;;;;;5104812;28;20015;-45
2021/03/03 11:19:42;;;;;;;1.25;0.40;;;;;;;;;;5109465;28;20439;-46
2021/03/03 11:22:08;;;;;;;2.88;1.48;;;;;;;;;;5108999;28;20028;-46
2021/03/03 11:24:34;;;;;;;7.03;0.77;;;;;;;;;;5111495;28;20545;-49
2021/03/03 11:27:00;;;;;;;0.17;0.13;;;;;;;;;;5111013;28;20401;-48
2021/03/03 11:29:26;;;;;;;2.88;0.55;;;;;;;;;;5109501;28;20032;-47
2021/03/03 11:31:52;;;;;;;1.20;0.28;;;;;;;;;;5110850;28;20038;-49
2021/03/03 11:34:19;;;;;;;5.95;0.88;;;;;;;;;;5110291;28;20496;-54
2021/03/03 11:36:45;;;;;;;0.50;0.40;;;;;;;;;;5111422;28;20042;-47
2021/03/03 11:39:11;;;;;;;0.20;0.20;;;;;;;;;;5111792;28;20032;-47
2021/03/03 11:41:37;;;;;;;0.65;0.35;;;;;;;;;;5110161;28;20016;-50
2021/03/03 11:44:05;;;;;;;0.10;0.10;;;;;;;;;;5110135;28;20404;-53
2021/03/03 11:46:31;;;;;;;0.40;0.40;;;;;;;;;;5110359;28;20077;-45
2021/03/03 11:48:57;;;;;;;0.20;0.17;;;;;;;;;;5110031;28;20031;-47
2021/03/03 11:51:23;;;;;;;0.25;0.20;;;;;;;;;;5113800;28;20036;-51
2021/03/03 11:53:50;;;;;;;0.10;0.10;;;;;;;;;;5109535;28;20027;-48
2021/03/03 11:56:16;;;;;;;0.00;0.00;;;;;;;;;;5110289;28;20023;-45
2021/03/03 11:58:43;;;;;;;0.00;0.00;;;;;;;;;;5109980;28;20027;-48
2021/03/03 12:01:09;;;;;;;0.00;0.00;;;;;;;;;;5110105;27;20402;-47
2021/03/03 12:03:35;;;;;;;0.10;0.10;;;;;;;;;;5106083;27;20031;-52
2021/03/03 12:06:02;;;;;;;0.30;0.30;;;;;;;;;;5107459;27;20031;-50
2021/03/03 12:08:28;;;;;;;0.00;0.00;;;;;;;;;;5104164;28;20032;-52
2021/03/03 12:10:55;;;;;;;0.10;0.10;;;;;;;;;;5108003;27;20038;-47
2021/03/03 12:13:21;;;;;;;0.90;0.75;;;;;;;;;;5109646;27;20056;-54
2021/03/03 12:15:48;;;;;;;0.00;0.00;;;;;;;;;;5108119;28;20080;-49
2021/03/03 12:18:14;;;;;;;0.57;0.57;;;;;;;;;;5100474;28;20600;-48
2021/03/03 12:20:40;;;;;;;0.10;0.10;;;;;;;;;;5102756;28;20062;-47
2021/03/03 12:23:06;;;;;;;0.88;0.85;;;;;;;;;;5108764;28;20371;-51
2021/03/03 12:25:32;;;;;;;0.10;0.10;;;;;;;;;;5107946;28;20423;-47
2021/03/03 12:27:59;;;;;;;0.45;0.20;;;;;;;;;;5107277;28;20028;-47
2021/03/03 12:30:25;;;;;;;0.88;0.50;;;;;;;;;;5110176;28;20097;-52
2021/03/03 12:32:51;;;;;;;0.08;0.08;;;;;;;;;;5106269;28;20019;-45
2021/03/03 12:35:17;;;;;;;0.45;0.40;;;;;;;;;;5109045;27;20454;-47
2021/03/03 12:37:44;;;;;;;0.22;0.22;;;;;;;;;;5109193;27;20035;-45
2021/03/03 12:40:10;;;;;;;0.05;0.05;;;;;;;;;;5108444;27;20069;-52
2021/03/03 12:42:36;;;;;;;0.10;0.10;;;;;;;;;;5109633;27;20047;-52
2021/03/03 12:45:03;;;;;;;0.20;0.20;;;;;;;;;;5107198;27;20031;-48
2021/03/03 12:47:30;;;;;;;0.10;0.10;;;;;;;;;;5106667;28;20134;-46
2021/03/03 12:49:56;;;;;;;4.88;4.63;;;;;;;;;;5109547;28;20039;-47
2021/03/03 12:52:22;;;;;;;0.30;0.30;;;;;;;;;;5108757;28;20427;-45
2021/03/03 12:54:48;;;;;;;0.00;0.00;;;;;;;;;;5110654;28;20118;-45
2021/03/03 12:57:14;;;;;;;0.10;0.10;;;;;;;;;;5111571;28;20034;-49
2021/03/03 12:59:40;;;;;;;0.95;0.40;;;;;;;;;;5108977;28;20474;-49
2021/03/03 13:02:06;;;;;;;0.00;0.00;;;;;;;;;;5109789;28;20028;-46
2021/03/03 13:04:32;;;;;;;1.77;0.55;;;;;;;;;;5110174;28;20107;-47
2021/03/03 13:06:59;;;;;;;0.13;0.13;;;;;;;;;;5109469;28;20062;-49
2021/03/03 13:09:25;;;;;;;0.40;0.20;;;;;;;;;;5111383;28;20035;-47
2021/03/03 13:11:51;;;;;;;0.10;0.10;;;;;;;;;;5109586;28;20385;-46
2021/03/03 13:14:17;;;;;;;0.90;0.50;;;;;;;;;;5109193;28;20619;-46
2021/03/03 13:16:43;;;;;;;0.00;0.00;;;;;;;;;;5110177;28;20543;-46
2021/03/03 13:19:09;;;;;;;7.57;0.90;;;;;;;;;;5108874;28;20484;-47
2021/03/03 13:21:35;;;;;;;0.90;0.60;;;;;;;;;;5109665;28;20030;-46
2021/03/03 13:24:01;;;;;;;0.25;0.25;;;;;;;;;;5102929;28;20032;-46
2021/03/03 13:26:28;;;;;;;0.50;0.50;;;;;;;;;;5105179;28;20553;-46
2021/03/03 13:28:55;;;;;;;0.00;0.00;;;;;;;;;;5105591;28;20104;-45
2021/03/03 13:31:21;;;;;;;0.57;0.57;;;;;;;;;;5108419;28;20732;-46
2021/03/03 13:33:47;;;;;;;2.10;1.25;;;;;;;;;;5105459;28;20038;-46
2021/03/03 13:36:13;;;;;;;0.10;0.10;;;;;;;;;;5106376;28;20516;-46
2021/03/03 13:38:39;;;;;;;0.00;0.00;;;;;;;;;;5106676;28;20076;-47
2021/03/03 13:41:05;;;;;;;0.95;0.43;;;;;;;;;;5107431;28;20015;-45
2021/03/03 13:43:32;;;;;;;1.45;0.45;;;;;;;;;;5108483;28;20027;-47
2021/03/03 13:45:58;;;;;;;2.50;0.75;;;;;;;;;;5109312;28;20031;-47
2021/03/03 13:48:24;;;;;;;0.15;0.15;;;;;;;;;;5110339;28;20012;-46
2021/03/03 13:50:50;;;;;;;0.00;0.00;;;;;;;;;;5107512;28;20107;-52
2021/03/03 13:53:16;;;;;;;0.73;0.52;;;;;;;;;;5108353;28;20074;-47
2021/03/03 13:55:42;;;;;;;0.10;0.10;;;;;;;;;;5105158;28;20024;-48
2021/03/03 13:58:08;;;;;;;1.15;0.63;;;;;;;;;;5105945;28;20451;-50
2021/03/03 14:00:34;;;;;;;0.75;0.75;;;;;;;;;;5108181;28;20142;-47
2021/03/03 14:03:01;;;;;;;0.43;0.43;;;;;;;;;;5109254;28;20016;-52
2021/03/03 14:05:28;;;;;;;1.70;0.30;;;;;;;;;;5108629;28;20027;-49
2021/03/03 14:07:54;;;;;;;1.95;1.10;;;;;;;;;;5107540;28;20052;-48
2021/03/03 14:10:20;;;;;;;1.75;1.65;;;;;;;;;;5109332;28;20024;-46
2021/03/03 14:12:46;;;;;;;3.78;0.52;;;;;;;;;;5113200;27;20054;-46
2021/03/03 14:15:13;;;;;;;2.40;1.00;;;;;;;;;;5118837;27;20523;-46
2021/03/03 14:17:39;;;;;;;2.63;1.08;;;;;;;;;;5117267;27;20389;-51
2021/03/03 14:20:06;;;;;;;2.55;1.25;;;;;;;;;;5116248;27;20035;-45
2021/03/03 14:22:32;;;;;;;6.97;1.63;;;;;;;;;;5117321;27;20023;-46
2021/03/03 14:24:58;;;;;;;0.65;0.65;;;;;;;;;;5117407;27;20024;-47
2021/03/03 14:27:24;;;;;;;0.28;0.22;;;;;;;;;;5117606;27;20023;-47
2021/03/03 14:29:50;;;;;;;0.28;0.25;;;;;;;;;;5113476;27;20028;-49
2021/03/03 14:32:16;;;;;;;0.65;0.65;;;;;;;;;;5111286;28;20019;-47
2021/03/03 14:34:42;;;;;;;0.77;0.30;;;;;;;;;;5108258;28;20032;-45
2021/03/03 14:37:08;;;;;;;0.90;0.90;;;;;;;;;;5110348;28;20024;-46
2021/03/03 14:39:35;;;;;;;5.00;1.85;;;;;;;;;;5111325;28;20058;-46
2021/03/03 14:42:01;;;;;;;0.00;0.00;;;;;;;;;;5107999;28;20404;-54
2021/03/03 14:44:27;;;;;;;0.20;0.20;;;;;;;;;;5110727;28;20432;-49
2021/03/03 14:46:55;;;;;;;14.13;1.02;;;;;;;;;;5072994;28;20032;-48
2021/03/03 14:49:22;;;;;;;3.42;0.98;;;;;;;;;;5111214;27;20050;-50
2021/03/03 14:51:48;;;;;;;1.23;0.50;;;;;;;;;;5111395;28;20484;-47
2021/03/03 14:54:14;;;;;;;1.23;0.57;;;;;;;;;;5111947;28;20020;-47
2021/03/03 14:56:40;;;;;;;0.75;0.65;;;;;;;;;;5110305;28;20551;-49
2021/03/03 14:59:09;;;;;;;1.25;0.85;;;;;;;;;;5110320;28;20044;-46
2021/03/03 15:01:36;;;;;;;0.75;0.75;;;;;;;;;;5112223;28;20533;-45
2021/03/03 15:04:02;;;;;;;1.90;0.75;;;;;;;;;;5112132;28;20033;-52
2021/03/03 15:06:28;;;;;;;1.00;0.50;;;;;;;;;;5113746;28;20027;-50
2021/03/03 15:08:54;;;;;;;0.10;0.10;;;;;;;;;;5112714;28;20112;-49
2021/03/03 15:11:20;;;;;;;0.75;0.43;;;;;;;;;;5110749;28;20031;-48
2021/03/03 15:13:46;;;;;;;2.88;0.82;;;;;;;;;;5110917;28;20024;-46
2021/03/03 15:16:13;;;;;;;0.13;0.13;;;;;;;;;;5110407;28;20024;-48
2021/03/03 15:18:39;;;;;;;0.80;0.80;;;;;;;;;;5112710;28;20024;-46
2021/03/03 15:21:05;;;;;;;0.32;0.30;;;;;;;;;;5112910;28;20024;-51
2021/03/03 15:23:31;;;;;;;0.63;0.52;;;;;;;;;;5109650;28;20074;-49
2021/03/03 15:25:57;;;;;;;1.08;0.60;;;;;;;;;;5110529;28;20377;-48
2021/03/03 15:28:23;;;;;;;3.33;1.45;;;;;;;;;;5111445;28;20045;-46
2021/03/03 15:30:49;;;;;;;1.67;0.52;;;;;;;;;;5111334;28;20122;-48
2021/03/03 15:33:15;;;;;;;7.50;3.38;;;;;;;;;;5111888;27;20020;-48
2021/03/03 15:35:41;;;;;;;2.00;1.38;;;;;;;;;;5111353;28;20522;-50
2021/03/03 15:38:07;;;;;;;0.10;0.10;;;;;;;;;;5111308;28;20026;-48
2021/03/03 15:40:34;;;;;;;5.03;1.13;;;;;;;;;;5111271;28;20024;-49
2021/03/03 15:43:00;;;;;;;2.30;0.32;;;;;;;;;;5108539;28;20023;-48
2021/03/03 15:45:26;;;;;;;5.10;1.25;;;;;;;;;;5092998;28;20513;-48
2021/03/03 15:47:52;;;;;;;3.83;1.50;;;;;;;;;;5110153;28;20028;-45
2021/03/03 15:50:18;;;;;;;0.30;0.30;;;;;;;;;;5109634;28;20138;-46
2021/03/03 15:52:45;;;;;;;0.20;0.20;;;;;;;;;;5109987;28;20114;-49
2021/03/03 15:55:12;;;;;;;0.93;0.75;;;;;;;;;;5110069;28;20051;-51
2021/03/03 15:57:39;;;;;;;0.65;0.45;;;;;;;;;;5108561;28;20034;-55
2021/03/03 16:00:06;;;;;;;0.52;0.50;;;;;;;;;;5110765;28;20057;-55
2021/03/03 16:02:32;;;;;;;0.10;0.10;;;;;;;;;;5107771;28;20036;-49
2021/03/03 16:04:58;;;;;;;1.52;0.73;;;;;;;;;;5109199;28;20035;-49
2021/03/03 16:07:24;;;;;;;0.00;0.00;;;;;;;;;;5109190;28;20023;-45
2021/03/03 16:09:51;;;;;;;0.43;0.35;;;;;;;;;;5109665;28;20324;-46
2021/03/03 16:12:17;;;;;;;9.02;1.35;;;;;;;;;;5111499;28;20095;-51
2021/03/03 16:14:43;;;;;;;1.38;1.27;;;;;;;;;;5103682;28;20030;-45
2021/03/03 16:17:09;;;;;;;1.48;1.38;;;;;;;;;;5100133;28;20016;-48
2021/03/03 16:19:35;;;;;;;0.35;0.35;;;;;;;;;;5104933;28;20023;-49
2021/03/03 16:22:01;;;;;;;5.43;0.57;;;;;;;;;;5101449;28;20024;-46
2021/03/03 16:24:27;;;;;;;1.02;1.00;;;;;;;;;;5112459;28;20032;-50
2021/03/03 16:26:53;;;;;;;1.55;1.45;;;;;;;;;;5108562;28;20073;-45
2021/03/03 16:29:20;;;;;;;2.03;1.85;;;;;;;;;;5103454;28;20127;-49
2021/03/03 16:31:46;;;;;;;2.35;2.17;;;;;;;;;;5108637;28;20030;-47
2021/03/03 16:34:12;;;;;;;0.00;0.00;;;;;;;;;;5103589;28;20027;-55
2021/03/03 16:36:38;;;;;;;0.10;0.10;;;;;;;;;;5107535;28;20022;-45
2021/03/03 16:39:05;;;;;;;0.00;0.00;;;;;;;;;;5103878;28;20024;-49
2021/03/03 16:41:32;;;;;;;0.10;0.10;;;;;;;;;;5103948;28;20387;-47
2021/03/03 16:43:59;;;;;;;0.10;0.10;;;;;;;;;;5104401;27;20022;-48
2021/03/03 16:46:26;;;;;;;0.00;0.00;;;;;;;;;;5102594;28;20054;-49
2021/03/03 16:48:52;;;;;;;0.00;0.00;;;;;;;;;;5109193;28;20524;-47
2021/03/03 16:51:18;;;;;;;0.00;0.00;;;;;;;;;;5104658;28;20065;-47
2021/03/03 16:53:44;;;;;;;0.50;0.50;;;;;;;;;;5096138;28;20016;-48
2021/03/03 16:56:11;;;;;;;0.00;0.00;;;;;;;;;;5096633;28;20020;-52
2021/03/03 16:58:37;;;;;;;0.40;0.40;;;;;;;;;;5093426;28;20024;-48
2021/03/03 17:01:03;;;;;;;0.10;0.10;;;;;;;;;;5094525;28;20036;-49
2021/03/03 17:03:30;;;;;;;0.00;0.00;;;;;;;;;;5091743;28;20059;-50
2021/03/03 17:05:56;;;;;;;0.10;0.10;;;;;;;;;;5095318;28;20514;-47
2021/03/03 17:08:23;;;;;;;0.20;0.20;;;;;;;;;;5095956;28;20055;-49
2021/03/03 17:10:50;;;;;;;0.22;0.22;;;;;;;;;;5092556;28;20055;-46
2021/03/03 17:13:17;;;;;;;0.03;0.03;;;;;;;;;;5091437;28;20110;-49
2021/03/03 17:15:43;;;;;;;0.30;0.20;;;;;;;;;;5093256;28;20035;-47
2021/03/03 17:18:09;;;;;;;0.90;0.90;;;;;;;;;;5107466;28;20779;-49
2021/03/03 17:20:35;;;;;;;0.10;0.10;;;;;;;;;;5105267;28;20066;-47
2021/03/03 17:23:02;;;;;;;0.05;0.05;;;;;;;;;;5106409;28;20076;-49
2021/03/03 17:25:28;;;;;;;0.00;0.00;;;;;;;;;;5107632;27;20106;-51
2021/03/03 17:27:54;;;;;;;3.50;1.50;;;;;;;;;;5108707;28;20091;-50
2021/03/03 17:30:21;;;;;;;0.17;0.17;;;;;;;;;;5111237;28;20071;-47
2021/03/03 17:32:47;;;;;;;0.00;0.00;;;;;;;;;;5104430;28;20035;-52
2021/03/03 17:35:13;;;;;;;0.10;0.10;;;;;;;;;;5103460;28;20389;-48
2021/03/03 17:37:39;;;;;;;0.08;0.08;;;;;;;;;;5102618;28;20481;-48
2021/03/03 17:40:06;;;;;;;0.20;0.20;;;;;;;;;;5107752;28;20024;-48
2021/03/03 17:42:32;;;;;;;0.00;0.00;;;;;;;;;;5110402;28;20031;-52
2021/03/03 17:44:58;;;;;;;0.00;0.00;;;;;;;;;;5108069;28;20061;-49
2021/03/03 17:47:24;;;;;;;0.38;0.38;;;;;;;;;;5107625;28;20480;-51
2021/03/03 17:49:50;;;;;;;0.10;0.10;;;;;;;;;;5108553;28;20039;-47
2021/03/03 17:52:16;;;;;;;0.10;0.10;;;;;;;;;;5106272;28;20024;-48
2021/03/03 17:54:42;;;;;;;0.10;0.10;;;;;;;;;;5108140;28;20066;-47
2021/03/03 17:57:09;;;;;;;0.00;0.00;;;;;;;;;;5092177;28;20026;-47
2021/03/03 17:59:36;;;;;;;0.05;0.05;;;;;;;;;;5104950;28;20525;-49
2021/03/03 18:02:02;;;;;;;0.00;0.00;;;;;;;;;;5107807;28;20028;-49
2021/03/03 18:04:28;;;;;;;0.00;0.00;;;;;;;;;;5089483;28;20654;-46
2021/03/03 18:06:54;;;;;;;0.10;0.10;;;;;;;;;;5108501;28;20016;-49
2021/03/03 18:09:20;;;;;;;0.00;0.00;;;;;;;;;;5104991;28;20097;-47
2021/03/03 18:11:46;;;;;;;5.53;0.47;;;;;;;;;;5106807;28;20034;-50
2021/03/03 18:14:12;;;;;;;0.10;0.10;;;;;;;;;;5090931;28;20046;-48
2021/03/03 18:16:39;;;;;;;0.00;0.00;;;;;;;;;;5107366;28;20481;-47
2021/03/03 18:19:05;;;;;;;0.00;0.00;;;;;;;;;;5104859;28;20504;-47
2021/03/03 18:21:31;;;;;;;0.45;0.45;;;;;;;;;;5110824;28;20055;-47
2021/03/03 18:23:57;;;;;;;0.00;0.00;;;;;;;;;;5108288;28;20055;-50
2021/03/03 18:26:23;;;;;;;0.00;0.00;;;;;;;;;;5107468;28;20028;-46
2021/03/03 18:28:50;;;;;;;0.00;0.00;;;;;;;;;;5107937;28;20473;-46
2021/03/03 18:31:16;;;;;;;0.00;0.00;;;;;;;;;;5109519;28;20028;-49
2021/03/03 18:33:42;;;;;;;0.00;0.00;;;;;;;;;;5109980;28;20051;-48
2021/03/03 18:36:09;;;;;;;0.00;0.00;;;;;;;;;;5108740;28;20030;-47
2021/03/03 18:38:36;;;;;;;0.10;0.10;;;;;;;;;;5109782;28;20107;-50
2021/03/03 18:41:02;;;;;;;0.00;0.00;;;;;;;;;;5109528;28;20177;-51
2021/03/03 18:43:30;;;;;;;0.00;0.00;;;;;;;;;;5107718;28;20374;-51
2021/03/03 18:45:58;;;;;;;0.00;0.00;;;;;;;;;;5108627;28;20020;-47
2021/03/03 18:48:24;;;;;;;0.00;0.00;;;;;;;;;;5110982;28;20024;-51
2021/03/03 18:50:50;;;;;;;0.00;0.00;;;;;;;;;;5107653;28;20035;-50
2021/03/03 18:53:16;;;;;;;1.35;1.25;;;;;;;;;;5107295;28;20015;-53
2021/03/03 18:55:43;;;;;;;0.00;0.00;;;;;;;;;;5111935;28;20032;-49
2021/03/03 18:58:09;;;;;;;0.52;0.20;;;;;;;;;;5111838;27;20023;-48
2021/03/03 19:00:35;;;;;;;0.00;0.00;;;;;;;;;;5115620;27;20522;-47
2021/03/03 19:03:02;;;;;;;0.10;0.10;;;;;;;;;;5111593;27;20020;-50
2021/03/03 19:05:28;;;;;;;0.13;0.13;;;;;;;;;;5108807;28;20031;-49
2021/03/03 19:07:54;;;;;;;0.00;0.00;;;;;;;;;;5109310;28;20024;-53
2021/03/03 19:10:20;;;;;;;3.65;1.23;;;;;;;;;;5107365;28;20036;-50
2021/03/03 19:12:47;;;;;;;2.75;2.30;;;;;;;;;;5095644;27;20461;-48
2021/03/03 19:15:13;;;;;;;0.00;0.00;;;;;;;;;;5095824;28;20044;-52
2021/03/03 19:17:40;;;;;;;4.13;1.05;;;;;;;;;;5095669;28;20044;-49
2021/03/03 19:20:07;;;;;;;12.65;3.03;;;;;;;;;;5099850;27;20685;-46
2021/03/03 19:22:33;;;;;;;0.20;0.20;;;;;;;;;;5097030;28;20024;-47
2021/03/03 19:24:59;;;;;;;5.05;1.75;;;;;;;;;;5092470;27;20027;-47
2021/03/03 19:27:25;;;;;;;0.22;0.20;;;;;;;;;;5091385;28;20062;-48
2021/03/03 19:29:51;;;;;;;0.00;0.00;;;;;;;;;;5095153;27;20509;-48
2021/03/03 19:32:17;;;;;;;5.40;1.70;;;;;;;;;;5093911;27;20031;-50
2021/03/03 19:34:43;;;;;;;11.07;2.83;;;;;;;;;;5094034;27;20024;-47
2021/03/03 19:37:10;;;;;;;1.50;1.13;;;;;;;;;;5098860;27;20028;-49
2021/03/03 19:39:36;;;;;;;4.38;0.88;;;;;;;;;;5097504;28;20043;-49
2021/03/03 19:42:02;;;;;;;1.10;0.65;;;;;;;;;;5105032;28;20027;-50
2021/03/03 19:44:28;;;;;;;0.00;0.00;;;;;;;;;;5105094;28;20077;-49
2021/03/03 19:46:56;;;;;;;0.75;0.75;;;;;;;;;;5105464;28;20027;-51
2021/03/03 19:49:23;;;;;;;6.18;1.00;;;;;;;;;;5099776;28;20623;-47
2021/03/03 19:51:49;;;;;;;0.20;0.20;;;;;;;;;;5108417;28;20071;-50
2021/03/03 19:54:16;;;;;;;9.50;1.83;;;;;;;;;;5107043;28;20567;-50
2021/03/03 19:56:42;;;;;;;1.85;1.05;;;;;;;;;;5101635;28;20618;-47
2021/03/03 19:59:09;;;;;;;0.00;0.00;;;;;;;;;;5100348;28;20035;-47
2021/03/03 20:01:35;;;;;;;0.10;0.10;;;;;;;;;;5097129;28;20061;-49
2021/03/03 20:04:01;;;;;;;8.10;5.00;;;;;;;;;;5108526;28;20071;-49
2021/03/03 20:06:31;;;;;;;1.00;1.00;;;;;;;;;;5110384;28;20074;-47
2021/03/03 20:08:58;;;;;;;5.68;3.40;;;;;;;;;;5109412;28;20039;-50
2021/03/03 20:11:24;;;;;;;4.65;1.85;;;;;;;;;;5103089;28;20028;-55
2021/03/03 20:13:55;;;;;;;1.00;0.93;;;;;;;;;;5099516;28;20442;-58
2021/03/03 20:16:23;;;;;;;1.35;0.57;;;;;;;;;;5102376;28;20028;-51
2021/03/03 20:18:49;;;;;;;9.52;1.00;;;;;;;;;;5100016;28;20673;-50
2021/03/03 20:21:15;;;;;;;1.70;1.52;;;;;;;;;;5101419;28;20036;-54
2021/03/03 20:23:41;;;;;;;2.72;1.55;;;;;;;;;;5099011;28;20039;-48
2021/03/03 20:26:07;;;;;;;1.77;1.55;;;;;;;;;;5101604;28;20116;-47
2021/03/03 20:28:33;;;;;;;0.88;0.88;;;;;;;;;;5106907;28;20020;-51
2021/03/03 20:30:59;;;;;;;0.85;0.63;;;;;;;;;;5106294;28;20058;-52
2021/03/03 20:33:25;;;;;;;1.85;1.45;;;;;;;;;;5102728;28;20042;-50
2021/03/03 20:35:51;;;;;;;1.95;1.55;;;;;;;;;;5080510;28;20115;-50
2021/03/03 20:38:18;;;;;;;0.35;0.25;;;;;;;;;;5093045;28;20379;-51
2021/03/03 20:40:44;;;;;;;1.17;1.13;;;;;;;;;;5099572;27;20120;-50
2021/03/03 20:43:10;;;;;;;7.05;2.08;;;;;;;;;;5102807;28;20031;-47
2021/03/03 20:45:36;;;;;;;1.20;0.50;;;;;;;;;;5102199;28;20039;-53